Time;durP1;ratioP1;P1;durP2;ratioP2;P2;SDS_P1;SDS_P2;PMS_P1;PMS_P2;Temp;Humidity;BMP_temperature;BMP_pressure;BME280_temperature;BME280_humidity;BME280_pressure;Samples;Min_cycle;Max_cycle;Signal;HPM_P1;HPM_P2
2022/01/06 00:00:08;;;;;;;;;;;4.00;99.90;4.50;99589.00;;;;424737;22;83297;-91
2022/01/06 00:00:21;;;;;;;;;;;4.10;99.90;4.50;99589.00;;;;422190;23;94892;-91
2022/01/06 00:00:33;;;;;;;;;;;4.00;99.90;4.50;99580.00;;;;421114;23;83163;-91
2022/01/06 00:00:45;;;;;;;;;;;4.00;99.90;4.40;99585.00;;;;424287;22;96376;-91
2022/01/06 00:01:02;;;;;;;;;;;4.00;99.90;4.50;99585.00;;;;422839;23;83439;-91
2022/01/06 00:01:14;;;;;;;;;;;4.00;99.90;4.50;99583.00;;;;423692;22;97564;-91
2022/01/06 00:01:26;;;;;;;;;;;4.00;99.90;4.50;99597.00;;;;420672;23;83354;-91
2022/01/06 00:01:38;;;;;;;;;;;4.00;99.90;4.50;99577.00;;;;424307;22;96385;-92
2022/01/06 00:01:50;;;;;;;;;;;4.00;99.90;4.50;99577.00;;;;426765;22;82557;-91
2022/01/06 00:02:02;;;;;;;;;;;4.00;99.90;4.60;99586.00;;;;425752;22;96693;-92
2022/01/06 00:02:14;;;;;;;;;;;4.00;99.90;4.60;99585.00;;;;420754;23;83268;-92
2022/01/06 00:02:26;;;;;;;;;;;4.00;99.90;4.60;99573.00;;;;422214;23;96376;-91
2022/01/06 00:02:39;;;;;;;;;;;4.00;99.90;4.50;99580.00;;;;424971;22;83410;-91
2022/01/06 00:02:51;;;;;;;;;;;4.00;99.90;4.50;99582.00;;;;420239;23;96496;-91
2022/01/06 00:03:03;;;;;;;;;;;4.00;99.90;4.50;99586.00;;;;422925;23;82334;-91
2022/01/06 00:03:15;;;;;;;;;;;4.00;99.90;4.50;99583.00;;;;426036;22;97889;-91
2022/01/06 00:03:27;;;;;;;;;;;4.00;99.90;4.50;99582.00;;;;422858;23;83328;-92
2022/01/06 00:03:39;;;;;;;;;;;4.00;99.90;4.50;99580.00;;;;420160;23;96451;-92
2022/01/06 00:03:52;;;;;;;;;;;4.00;99.90;4.50;99587.00;;;;425011;22;82473;-91
2022/01/06 00:04:04;;;;;;;;;;;4.00;99.90;4.60;99587.00;;;;424332;22;94949;-91
2022/01/06 00:04:16;;;;;;;;;;;4.00;99.90;4.60;99580.00;;;;425160;22;83293;-91
2022/01/06 00:04:28;;;;;;;;;;;4.00;99.90;4.50;99585.00;;;;422011;23;94766;-91
2022/01/06 00:04:41;;;;;;;;;;;4.00;99.90;4.50;99582.00;;;;424995;22;82350;-91
2022/01/06 00:04:53;;;;;;;;;;;4.00;99.90;4.40;99583.00;;;;424179;22;96621;-92
2022/01/06 00:05:05;;;;;;;;;;;4.00;99.90;4.30;99579.00;;;;425216;22;83415;-91
2022/01/06 00:05:17;;;;;;;;;;;3.90;99.90;4.30;99582.00;;;;421852;23;97446;-91
2022/01/06 00:05:28;;;;;;;;;;;4.00;99.90;4.40;99583.00;;;;422929;23;82416;-91
2022/01/06 00:05:40;;;;;;;;;;;3.90;99.90;4.50;99582.00;;;;428511;22;95190;-91
2022/01/06 00:05:52;;;;;;;;;;;4.00;99.90;4.50;99577.00;;;;420803;23;82385;-92
2022/01/06 00:06:07;;;;;;;;;;;3.90;99.90;4.50;99583.00;;;;422224;23;95430;-91
2022/01/06 00:06:20;;;;;;;;;;;3.90;99.90;4.50;99580.00;;;;425301;22;83352;-90
2022/01/06 00:06:38;;;;;;;;;;;3.90;99.90;4.50;99581.00;;;;422289;23;95767;-92
2022/01/06 00:06:49;;;;;;;;;;;3.90;99.90;4.50;99580.00;;;;425248;22;82353;-92
2022/01/06 00:07:01;;;;;;;;;;;4.00;99.90;4.50;99573.00;;;;424228;22;95346;-91
2022/01/06 00:07:13;;;;;;;;;;;3.90;99.90;4.50;99584.00;;;;427319;22;83397;-92
2022/01/06 00:07:25;;;;;;;;;;;4.00;99.90;4.60;99576.00;;;;422029;23;97052;-91
2022/01/06 00:07:37;;;;;;;;;;;3.90;99.90;4.60;99574.00;;;;421097;23;83154;-91
2022/01/06 00:07:48;;;;;;;;;;;3.90;99.90;4.60;99570.00;;;;421939;23;95978;-91
2022/01/06 00:08:01;;;;;;;;;;;4.00;99.90;4.60;99580.00;;;;422752;23;83362;-91
2022/01/06 00:08:13;;;;;;;;;;;4.00;99.90;4.60;99569.00;;;;426386;22;96857;-90
2022/01/06 00:08:25;;;;;;;;;;;3.90;99.90;4.60;99571.00;;;;427489;22;82415;-91
2022/01/06 00:08:38;;;;;;;;;;;4.00;99.90;4.60;99574.00;;;;424464;22;94000;-91
2022/01/06 00:08:53;;;;;;;;;;;4.00;99.90;4.60;99572.00;;;;424926;22;83377;-91
2022/01/06 00:09:06;;;;;;;;;;;4.00;99.90;4.60;99567.00;;;;423976;22;95939;-92
2022/01/06 00:09:19;;;;;;;;;;;4.00;99.90;4.70;99573.00;;;;425062;22;83220;-92
2022/01/06 00:09:31;;;;;;;;;;;4.00;99.90;4.70;99578.00;;;;424073;22;96561;-91
2022/01/06 00:09:43;;;;;;;;;;;4.00;99.90;4.70;99576.00;;;;424893;22;83400;-91
2022/01/06 00:09:54;;;;;;;;;;;4.00;99.90;4.60;99566.00;;;;422300;23;94715;-91
2022/01/06 00:10:10;;;;;;;;;;;4.00;99.90;4.60;99582.00;;;;427029;22;83395;-92
2022/01/06 00:10:23;;;;;;;;;;;4.00;99.90;4.50;99583.00;;;;424019;22;96120;-91
2022/01/06 00:10:35;;;;;;;;;;;4.00;99.90;4.50;99574.00;;;;425229;22;82509;-92
2022/01/06 00:10:49;;;;;;;;;;;4.00;99.90;4.60;99575.00;;;;422002;23;92937;-92
2022/01/06 00:11:01;;;;;;;;;;;4.00;99.90;4.60;99573.00;;;;426971;22;83249;-91
2022/01/06 00:11:14;;;;;;;;;;;4.00;99.90;4.70;99572.00;;;;426072;22;96400;-91
2022/01/06 00:11:25;;;;;;;;;;;4.00;99.90;4.60;99568.00;;;;424911;22;83624;-92
2022/01/06 00:11:37;;;;;;;;;;;4.00;99.90;4.50;99573.00;;;;423897;22;96093;-91
2022/01/06 00:11:49;;;;;;;;;;;4.00;99.90;4.60;99569.00;;;;424937;22;83224;-92
2022/01/06 00:12:01;;;;;;;;;;;4.00;99.90;4.60;99571.00;;;;423936;22;97013;-91
2022/01/06 00:12:15;;;;;;;;;;;4.00;99.90;4.60;99571.00;;;;424904;22;82468;-91
2022/01/06 00:12:37;;;;;;;;;;;4.00;99.90;4.60;99573.00;;;;426478;22;95246;-92
2022/01/06 00:13:08;;;;;;;;;;;4.00;99.90;4.70;99565.00;;;;425189;22;83337;-91
2022/01/06 00:13:32;;;;;;;;;;;4.00;99.90;4.70;99571.00;;;;421985;23;97035;-91
2022/01/06 00:13:54;;;;;;;;;;;4.10;99.90;4.70;99581.00;;;;423216;23;83260;-91
2022/01/06 00:14:20;;;;;;;;;;;4.00;99.90;4.70;99577.00;;;;420202;23;95788;-91
2022/01/06 00:15:38;;;;;;;;;;;4.10;99.90;4.60;99574.00;;;;426556;22;94580;-91
2022/01/06 00:16:11;;;;;;;;;;;4.10;99.90;4.60;99579.00;;;;422336;23;96221;-92
2022/01/06 00:16:40;;;;;;;;;;;4.10;99.90;4.50;99575.00;;;;422876;23;82446;-91
2022/01/06 00:18:11;;;;;;;;;;;4.00;99.90;4.50;99575.00;;;;422729;23;83300;-90
2022/01/06 00:18:19;;;;;;;;;;;4.00;99.90;4.50;99573.00;;;;422051;23;96558;-91
2022/01/06 00:23:19;;;;;;;;;;;4.00;99.90;4.50;99566.00;;;;417578;23;96308;-91
2022/01/06 00:23:35;;;;;;;;;;;4.00;99.90;4.50;99574.00;;;;416514;23;83448;-91
2022/01/06 00:23:47;;;;;;;;;;;4.00;99.90;4.50;99580.00;;;;419482;23;95938;-91
2022/01/06 00:23:58;;;;;;;;;;;4.00;99.90;4.60;99576.00;;;;421014;23;83404;-92
2022/01/06 00:24:10;;;;;;;;;;;4.00;99.90;4.60;99574.00;;;;418072;23;95440;-91
2022/01/06 00:24:22;;;;;;;;;;;4.00;99.90;4.50;99589.00;;;;415034;23;82290;-91
2022/01/06 00:24:34;;;;;;;;;;;4.00;99.90;4.50;99572.00;;;;419814;23;95255;-92
2022/01/06 00:24:46;;;;;;;;;;;4.00;99.90;4.50;99580.00;;;;418721;23;83259;-91
2022/01/06 00:24:58;;;;;;;;;;;4.00;99.90;4.60;99580.00;;;;415665;23;95799;-91
2022/01/06 00:25:09;;;;;;;;;;;4.00;99.90;4.60;99581.00;;;;419003;23;82325;-91
2022/01/06 00:25:21;;;;;;;;;;;4.00;99.90;4.60;99578.00;;;;417712;23;97665;-91
2022/01/06 00:25:33;;;;;;;;;;;4.00;99.90;4.50;99571.00;;;;418943;23;83142;-91
2022/01/06 00:25:45;;;;;;;;;;;4.00;99.90;4.60;99570.00;;;;416094;23;96180;-91
2022/01/06 00:25:57;;;;;;;;;;;4.00;99.90;4.60;99578.00;;;;417003;23;82525;-91
2022/01/06 00:26:09;;;;;;;;;;;4.00;99.90;4.60;99579.00;;;;417199;23;95147;-91
2022/01/06 00:26:21;;;;;;;;;;;4.00;99.90;4.60;99574.00;;;;418254;23;83232;-91
2022/01/06 00:26:32;;;;;;;;;;;4.00;99.90;4.60;99582.00;;;;419501;23;94454;-91
2022/01/06 00:26:44;;;;;;;;;;;4.00;99.90;4.60;99576.00;;;;420724;23;83350;-91
2022/01/06 00:26:57;;;;;;;;;;;4.00;99.90;4.60;99578.00;;;;422133;23;96689;-91
2022/01/06 00:27:09;;;;;;;;;;;4.00;99.90;4.60;99574.00;;;;416910;23;83242;-91
2022/01/06 00:27:20;;;;;;;;;;;4.00;99.90;4.60;99574.00;;;;415345;23;97655;-91
2022/01/06 00:27:32;;;;;;;;;;;4.00;99.90;4.60;99575.00;;;;418613;23;82448;-91
2022/01/06 00:27:44;;;;;;;;;;;4.00;99.90;4.60;99572.00;;;;422119;23;96098;-91
2022/01/06 00:27:56;;;;;;;;;;;4.00;99.90;4.60;99571.00;;;;417117;23;82420;-91
2022/01/06 00:28:07;;;;;;;;;;;4.00;99.90;4.60;99580.00;;;;415949;23;95524;-92
2022/01/06 00:28:19;;;;;;;;;;;4.10;99.90;4.50;99575.00;;;;420524;23;83704;-91
2022/01/06 00:28:31;;;;;;;;;;;4.00;99.90;4.60;99578.00;;;;418076;23;97312;-91
2022/01/06 00:28:43;;;;;;;;;;;4.10;99.90;4.60;99576.00;;;;422757;23;83280;-91
2022/01/06 00:28:55;;;;;;;;;;;4.00;99.90;4.60;99575.00;;;;417988;23;96462;-92
2022/01/06 00:29:06;;;;;;;;;;;4.00;99.90;4.60;99572.00;;;;416864;23;83244;-92
2022/01/06 00:29:18;;;;;;;;;;;4.00;99.90;4.70;99578.00;;;;409752;23;97312;-91
2022/01/06 00:29:30;;;;;;;;;;;4.00;99.90;4.70;99578.00;;;;416882;23;83207;-92
2022/01/06 00:29:42;;;;;;;;;;;4.00;99.90;4.60;99583.00;;;;419669;23;97348;-91
2022/01/06 00:29:54;;;;;;;;;;;4.00;99.90;4.60;99575.00;;;;414971;23;83335;-92
2022/01/06 00:30:06;;;;;;;;;;;4.00;99.90;4.70;99569.00;;;;417998;23;95877;-92
2022/01/06 00:30:18;;;;;;;;;;;4.00;99.90;4.70;99571.00;;;;421112;23;83241;-92
2022/01/06 00:30:29;;;;;;;;;;;4.00;99.90;4.70;99578.00;;;;414208;23;96067;-92
2022/01/06 00:30:41;;;;;;;;;;;4.00;99.90;4.70;99570.00;;;;418947;23;82531;-91
2022/01/06 00:30:53;;;;;;;;;;;4.10;99.90;4.70;99573.00;;;;416078;23;96520;-91
2022/01/06 00:31:05;;;;;;;;;;;4.10;99.90;4.70;99577.00;;;;418957;23;83273;-91
2022/01/06 00:31:17;;;;;;;;;;;4.10;99.90;4.70;99576.00;;;;415975;23;96283;-92
2022/01/06 00:31:29;;;;;;;;;;;4.10;99.90;4.70;99582.00;;;;414835;23;83407;-91
2022/01/06 00:31:40;;;;;;;;;;;4.10;99.90;4.70;99574.00;;;;415856;23;96456;-91
2022/01/06 00:31:52;;;;;;;;;;;4.10;99.90;4.70;99578.00;;;;416968;23;83332;-91
2022/01/06 00:32:04;;;;;;;;;;;4.10;99.90;4.70;99576.00;;;;419299;23;96895;-91
2022/01/06 00:32:16;;;;;;;;;;;4.10;99.90;4.70;99572.00;;;;420344;23;83384;-91
2022/01/06 00:32:28;;;;;;;;;;;4.10;99.90;4.70;99573.00;;;;414139;23;95670;-91
2022/01/06 00:32:40;;;;;;;;;;;4.10;99.90;4.70;99573.00;;;;413069;23;82327;-91
2022/01/06 00:32:51;;;;;;;;;;;4.10;99.90;4.70;99583.00;;;;419712;23;97179;-91
2022/01/06 00:33:03;;;;;;;;;;;4.20;99.90;4.70;99577.00;;;;416756;23;83189;-91
2022/01/06 00:33:15;;;;;;;;;;;4.10;99.90;4.70;99570.00;;;;413986;23;96856;-91
2022/01/06 00:33:28;;;;;;;;;;;4.10;99.90;4.70;99572.00;;;;421107;23;83330;-91
2022/01/06 00:33:40;;;;;;;;;;;4.10;99.90;4.70;99574.00;;;;418099;23;96369;-91
2022/01/06 00:33:52;;;;;;;;;;;4.10;99.90;4.70;99577.00;;;;417318;23;83349;-92
2022/01/06 00:34:05;;;;;;;;;;;4.10;99.90;4.70;99568.00;;;;422390;23;92947;-91
2022/01/06 00:34:17;;;;;;;;;;;4.10;99.90;4.70;99576.00;;;;419049;23;83568;-91
2022/01/06 00:34:29;;;;;;;;;;;4.10;99.90;4.80;99579.00;;;;416154;23;96540;-92
2022/01/06 00:34:41;;;;;;;;;;;4.20;99.90;4.80;99575.00;;;;416954;23;82424;-92
2022/01/06 00:34:53;;;;;;;;;;;4.20;99.90;4.80;99574.00;;;;417641;23;96513;-91
2022/01/06 00:35:05;;;;;;;;;;;4.20;99.90;4.70;99574.00;;;;423077;23;83327;-91
2022/01/06 00:35:17;;;;;;;;;;;4.20;99.90;4.80;99578.00;;;;413955;23;97645;-91
2022/01/06 00:35:28;;;;;;;;;;;4.20;99.90;4.80;99571.00;;;;417149;23;82432;-91
2022/01/06 00:35:40;;;;;;;;;;;4.20;99.90;4.70;99575.00;;;;418122;23;95120;-92
2022/01/06 00:35:52;;;;;;;;;;;4.20;99.90;4.80;99575.00;;;;417137;23;83427;-91
2022/01/06 00:36:04;;;;;;;;;;;4.20;99.90;4.80;99573.00;;;;414027;23;94221;-91
2022/01/06 00:36:16;;;;;;;;;;;4.20;99.90;4.80;99571.00;;;;416976;23;83501;-91
2022/01/06 00:36:28;;;;;;;;;;;4.20;99.90;4.70;99579.00;;;;415789;23;95277;-91
2022/01/06 00:36:42;;;;;;;;;;;4.20;99.90;4.70;99573.00;;;;420804;23;83282;-92
2022/01/06 00:36:54;;;;;;;;;;;4.20;99.90;4.70;99577.00;;;;419865;23;96615;-91
2022/01/06 00:37:07;;;;;;;;;;;4.20;99.90;4.80;99578.00;;;;417389;23;83092;-91
2022/01/06 00:37:19;;;;;;;;;;;4.20;99.90;4.80;99574.00;;;;414048;23;96409;-91
2022/01/06 00:37:31;;;;;;;;;;;4.20;99.90;4.70;99576.00;;;;421204;23;82480;-91
2022/01/06 00:37:42;;;;;;;;;;;4.20;99.90;4.70;99577.00;;;;418450;23;93117;-91
2022/01/06 00:37:54;;;;;;;;;;;4.20;99.90;4.70;99576.00;;;;413147;23;83413;-92
2022/01/06 00:38:07;;;;;;;;;;;4.20;99.90;4.70;99579.00;;;;419860;23;97552;-91
2022/01/06 00:38:19;;;;;;;;;;;4.20;99.90;4.70;99572.00;;;;418564;23;83444;-91
2022/01/06 00:38:31;;;;;;;;;;;4.20;99.90;4.80;99571.00;;;;410277;23;96516;-91
2022/01/06 00:38:42;;;;;;;;;;;4.20;99.90;4.80;99577.00;;;;416772;23;83428;-91
2022/01/06 00:38:54;;;;;;;;;;;4.20;99.90;4.80;99572.00;;;;421809;23;96798;-92
2022/01/06 00:39:07;;;;;;;;;;;4.20;99.90;4.80;99568.00;;;;421101;23;83312;-91
2022/01/06 00:39:18;;;;;;;;;;;4.20;99.90;4.80;99579.00;;;;419881;23;96411;-91
2022/01/06 00:39:30;;;;;;;;;;;4.20;99.90;4.80;99579.00;;;;419138;23;83336;-92
2022/01/06 00:39:42;;;;;;;;;;;4.20;99.90;4.80;99581.00;;;;414197;23;96661;-92
2022/01/06 00:39:54;;;;;;;;;;;4.20;99.90;4.70;99587.00;;;;420521;23;83349;-91
2022/01/06 00:40:06;;;;;;;;;;;4.20;99.90;4.70;99577.00;;;;418046;23;97381;-91
2022/01/06 00:40:18;;;;;;;;;;;4.20;99.90;4.80;99577.00;;;;415111;23;83502;-91
2022/01/06 00:40:30;;;;;;;;;;;4.20;99.90;4.80;99581.00;;;;420252;23;95191;-92
2022/01/06 00:40:42;;;;;;;;;;;4.20;99.90;4.80;99575.00;;;;417084;23;83418;-92
2022/01/06 00:40:54;;;;;;;;;;;4.20;99.90;4.80;99578.00;;;;414284;23;95688;-92
2022/01/06 00:41:05;;;;;;;;;;;4.20;99.90;4.80;99577.00;;;;419437;23;82562;-91
2022/01/06 00:41:17;;;;;;;;;;;4.20;99.90;4.80;99577.00;;;;419867;23;96518;-91
2022/01/06 00:41:31;;;;;;;;;;;4.20;99.90;4.80;99586.00;;;;417073;23;83382;-91
2022/01/06 00:41:43;;;;;;;;;;;4.20;99.90;4.80;99570.00;;;;416432;23;92678;-90
2022/01/06 00:41:56;;;;;;;;;;;4.20;99.90;4.80;99577.00;;;;419133;23;83343;-91
2022/01/06 00:42:08;;;;;;;;;;;4.20;99.90;4.80;99580.00;;;;414182;23;96733;-91
2022/01/06 00:42:20;;;;;;;;;;;4.20;99.90;4.80;99574.00;;;;417405;23;82369;-91
2022/01/06 00:42:31;;;;;;;;;;;4.20;99.90;4.80;99578.00;;;;418205;23;96898;-91
2022/01/06 00:42:43;;;;;;;;;;;4.20;99.90;4.80;99584.00;;;;421746;23;83049;-91
2022/01/06 00:42:55;;;;;;;;;;;4.20;99.90;4.80;99575.00;;;;414248;23;96776;-91
2022/01/06 00:43:08;;;;;;;;;;;4.20;99.90;4.80;99581.00;;;;419660;23;83166;-91
2022/01/06 00:43:19;;;;;;;;;;;4.20;99.90;4.80;99576.00;;;;412612;23;96452;-91
2022/01/06 00:43:31;;;;;;;;;;;4.20;99.90;4.70;99578.00;;;;417607;23;83321;-92
2022/01/06 00:43:43;;;;;;;;;;;4.20;99.90;4.70;99583.00;;;;418571;23;95245;-92
2022/01/06 00:43:55;;;;;;;;;;;4.20;99.90;4.80;99579.00;;;;419162;23;83365;-91
2022/01/06 00:44:07;;;;;;;;;;;4.20;99.90;4.80;99581.00;;;;416792;23;94304;-91
2022/01/06 00:44:19;;;;;;;;;;;4.20;99.90;4.80;99583.00;;;;413471;23;83473;-92
2022/01/06 00:44:30;;;;;;;;;;;4.20;99.90;4.90;99571.00;;;;418451;23;95502;-91
2022/01/06 00:44:42;;;;;;;;;;;4.20;99.90;4.80;99577.00;;;;415214;23;83444;-91
2022/01/06 00:44:54;;;;;;;;;;;4.20;99.90;4.80;99578.00;;;;413972;23;95690;-92
2022/01/06 00:45:06;;;;;;;;;;;4.20;99.90;4.80;99578.00;;;;420932;23;83303;-91
2022/01/06 00:45:18;;;;;;;;;;;4.20;99.90;4.80;99577.00;;;;416109;23;97357;-92
2022/01/06 00:45:30;;;;;;;;;;;4.20;99.90;4.80;99581.00;;;;420978;23;83360;-91
2022/01/06 00:45:42;;;;;;;;;;;4.20;99.90;4.80;99572.00;;;;421966;23;95722;-92
2022/01/06 00:45:54;;;;;;;;;;;4.20;99.90;4.80;99571.00;;;;416815;23;82442;-91
2022/01/06 00:46:06;;;;;;;;;;;4.20;99.90;4.80;99586.00;;;;411641;23;95919;-91
2022/01/06 00:46:18;;;;;;;;;;;4.20;99.90;4.90;99579.00;;;;420647;23;83399;-91
2022/01/06 00:46:30;;;;;;;;;;;4.20;99.90;4.90;99578.00;;;;420454;23;96692;-91
2022/01/06 00:46:41;;;;;;;;;;;4.20;99.90;4.80;99572.00;;;;418904;23;82460;-90
2022/01/06 00:46:53;;;;;;;;;;;4.20;99.90;4.80;99576.00;;;;423926;23;95702;-92
2022/01/06 00:47:05;;;;;;;;;;;4.20;99.90;4.80;99575.00;;;;420758;23;82328;-91
2022/01/06 00:47:20;;;;;;;;;;;4.30;99.90;4.80;99570.00;;;;415540;23;96428;-90
2022/01/06 00:47:32;;;;;;;;;;;4.30;99.90;4.80;99578.00;;;;421120;23;82388;-91
2022/01/06 00:47:46;;;;;;;;;;;4.30;99.90;4.80;99577.00;;;;417801;23;95534;-91
2022/01/06 00:47:58;;;;;;;;;;;4.20;99.90;4.70;99577.00;;;;416924;23;82406;-92
2022/01/06 00:48:10;;;;;;;;;;;4.30;99.90;4.80;99578.00;;;;417514;23;96474;-91
2022/01/06 00:48:22;;;;;;;;;;;4.30;99.90;4.80;99568.00;;;;422598;23;82253;-91
2022/01/06 00:48:34;;;;;;;;;;;4.30;99.90;4.70;99582.00;;;;417649;23;95383;-91
2022/01/06 00:48:46;;;;;;;;;;;4.20;99.90;4.70;99576.00;;;;418733;23;82574;-91
2022/01/06 00:48:57;;;;;;;;;;;4.20;99.90;4.70;99575.00;;;;419979;23;95736;-90
2022/01/06 00:49:09;;;;;;;;;;;4.20;99.90;4.70;99580.00;;;;420420;23;82343;-92
2022/01/06 00:49:21;;;;;;;;;;;4.20;99.90;4.80;99581.00;;;;415632;23;96220;-92
2022/01/06 00:49:33;;;;;;;;;;;4.20;99.90;4.70;99579.00;;;;418717;23;82490;-91
2022/01/06 00:49:45;;;;;;;;;;;4.20;99.90;4.70;99587.00;;;;417861;23;95487;-90
2022/01/06 00:49:57;;;;;;;;;;;4.20;99.90;4.70;99585.00;;;;414509;23;82490;-91
2022/01/06 00:50:08;;;;;;;;;;;4.20;99.90;4.70;99588.00;;;;417626;23;95308;-91
2022/01/06 00:50:20;;;;;;;;;;;4.20;99.90;4.70;99586.00;;;;424796;23;82380;-91
2022/01/06 00:50:32;;;;;;;;;;;4.20;99.90;4.80;99578.00;;;;422096;23;95695;-92
2022/01/06 00:50:44;;;;;;;;;;;4.20;99.90;4.80;99578.00;;;;418832;23;82397;-90
2022/01/06 00:50:56;;;;;;;;;;;4.20;99.90;4.70;99574.00;;;;415609;23;96484;-91
2022/01/06 00:51:09;;;;;;;;;;;4.20;99.90;4.70;99584.00;;;;419019;23;82391;-92
2022/01/06 00:51:21;;;;;;;;;;;4.20;99.90;4.80;99566.00;;;;417635;23;98456;-91
2022/01/06 00:51:33;;;;;;;;;;;4.20;99.90;4.70;99584.00;;;;420452;23;82500;-91
2022/01/06 00:51:45;;;;;;;;;;;4.20;99.90;4.70;99587.00;;;;421997;22;94958;-91
2022/01/06 00:51:56;;;;;;;;;;;4.20;99.90;4.70;99579.00;;;;416943;23;82314;-92
2022/01/06 00:52:08;;;;;;;;;;;4.20;99.90;4.70;99577.00;;;;417836;23;95250;-90
2022/01/06 00:52:20;;;;;;;;;;;4.20;99.90;4.80;99570.00;;;;420568;23;82414;-91
2022/01/06 00:52:33;;;;;;;;;;;4.20;99.90;4.80;99578.00;;;;417803;23;95551;-91
2022/01/06 00:52:44;;;;;;;;;;;4.20;99.90;4.80;99583.00;;;;422709;22;82499;-91
2022/01/06 00:52:57;;;;;;;;;;;4.20;99.90;4.80;99575.00;;;;417887;23;96056;-91
2022/01/06 00:53:09;;;;;;;;;;;4.20;99.90;4.80;99581.00;;;;416529;23;82595;-91
2022/01/06 00:53:20;;;;;;;;;;;4.20;99.90;4.80;99579.00;;;;417693;23;94162;-90
2022/01/06 00:53:32;;;;;;;;;;;4.20;99.90;4.80;99575.00;;;;414857;23;83452;-91
2022/01/06 00:53:44;;;;;;;;;;;4.20;99.90;4.60;99574.00;;;;418184;23;92667;-91
2022/01/06 00:53:56;;;;;;;;;;;4.20;99.90;4.70;99573.00;;;;419008;23;82219;-91
2022/01/06 00:54:07;;;;;;;;;;;4.20;99.90;4.60;99586.00;;;;417461;23;95500;-91
2022/01/06 00:54:19;;;;;;;;;;;4.20;99.90;4.60;99581.00;;;;422751;23;82319;-90
2022/01/06 00:54:34;;;;;;;;;;;4.20;99.90;4.70;99571.00;;;;417796;23;95194;-91
2022/01/06 00:54:46;;;;;;;;;;;4.20;99.90;4.70;99578.00;;;;420590;23;82808;-92
2022/01/06 00:54:58;;;;;;;;;;;4.20;99.90;4.70;99582.00;;;;419732;23;95582;-91
2022/01/06 00:55:09;;;;;;;;;;;4.20;99.90;4.70;99577.00;;;;420805;23;82435;-91
2022/01/06 00:55:21;;;;;;;;;;;4.20;99.90;4.70;99579.00;;;;417759;23;93897;-91
2022/01/06 00:55:33;;;;;;;;;;;4.20;99.90;4.70;99585.00;;;;416641;23;82400;-91
2022/01/06 00:55:45;;;;;;;;;;;4.20;99.90;4.60;99576.00;;;;421832;22;94045;-90
2022/01/06 00:55:57;;;;;;;;;;;4.20;99.90;4.60;99582.00;;;;420924;23;82381;-91
2022/01/06 00:56:09;;;;;;;;;;;4.10;99.90;4.60;99586.00;;;;421743;23;96113;-91
2022/01/06 00:56:20;;;;;;;;;;;4.20;99.90;4.60;99584.00;;;;418686;23;82191;-92
2022/01/06 00:56:32;;;;;;;;;;;4.20;99.90;4.50;99577.00;;;;415607;23;95145;-91
2022/01/06 00:56:44;;;;;;;;;;;4.20;99.90;4.50;99584.00;;;;418931;23;82395;-90
2022/01/06 00:56:55;;;;;;;;;;;4.10;99.90;4.50;99576.00;;;;417640;23;95626;-91
2022/01/06 00:57:07;;;;;;;;;;;4.10;99.90;4.60;99575.00;;;;420796;23;82445;-91
2022/01/06 00:57:19;;;;;;;;;;;4.10;99.90;4.60;99576.00;;;;419980;23;96397;-90
2022/01/06 00:57:31;;;;;;;;;;;4.10;99.90;4.60;99576.00;;;;418701;23;82454;-91
2022/01/06 00:57:43;;;;;;;;;;;4.10;99.90;4.60;99576.00;;;;419561;23;95307;-90
2022/01/06 00:57:55;;;;;;;;;;;4.10;99.90;4.60;99584.00;;;;418915;23;82338;-92
2022/01/06 00:58:07;;;;;;;;;;;4.10;99.90;4.50;99575.00;;;;420051;23;95559;-91
2022/01/06 00:58:19;;;;;;;;;;;4.10;99.90;4.60;99580.00;;;;418655;23;82505;-91
2022/01/06 00:58:31;;;;;;;;;;;4.10;99.90;4.60;99581.00;;;;417513;23;95697;-90
2022/01/06 00:58:42;;;;;;;;;;;4.10;99.90;4.60;99580.00;;;;422794;23;82365;-91
2022/01/06 00:58:54;;;;;;;;;;;4.10;99.90;4.60;99577.00;;;;417733;23;95222;-91
2022/01/06 00:59:06;;;;;;;;;;;4.10;99.90;4.70;99572.00;;;;422803;23;82257;-90
2022/01/06 00:59:18;;;;;;;;;;;4.10;99.90;4.70;99583.00;;;;421965;23;95841;-90
2022/01/06 00:59:29;;;;;;;;;;;4.10;99.90;4.70;99573.00;;;;418598;23;82508;-91
2022/01/06 00:59:41;;;;;;;;;;;4.10;99.90;4.70;99570.00;;;;417300;23;96149;-91
2022/01/06 00:59:53;;;;;;;;;;;4.10;99.90;4.70;99577.00;;;;423520;22;82557;-91
2022/01/06 01:00:05;;;;;;;;;;;4.10;99.90;4.60;99581.00;;;;425371;22;96136;-90
2022/01/06 01:00:17;;;;;;;;;;;4.10;99.90;4.60;99579.00;;;;426042;22;83166;-91
2022/01/06 01:00:37;;;;;;;;;;;4.10;99.90;4.60;99580.00;;;;425592;22;92955;-91
2022/01/06 01:00:49;;;;;;;;;;;4.10;99.90;4.70;99578.00;;;;426660;22;83417;-91
2022/01/06 01:01:01;;;;;;;;;;;4.10;99.90;4.70;99585.00;;;;427519;22;95723;-91
2022/01/06 01:01:14;;;;;;;;;;;4.10;99.90;4.70;99584.00;;;;426281;22;83343;-90
2022/01/06 01:01:26;;;;;;;;;;;4.10;99.90;4.70;99572.00;;;;425175;22;96718;-91
2022/01/06 01:01:38;;;;;;;;;;;4.10;99.90;4.70;99576.00;;;;425511;22;82418;-91
2022/01/06 01:01:50;;;;;;;;;;;4.10;99.90;4.70;99580.00;;;;424334;22;92448;-91
2022/01/06 01:02:02;;;;;;;;;;;4.10;99.90;4.70;99581.00;;;;422699;23;83206;-91
2022/01/06 01:02:14;;;;;;;;;;;4.10;99.90;4.70;99582.00;;;;426373;22;94783;-91
2022/01/06 01:02:26;;;;;;;;;;;4.20;99.90;4.70;99572.00;;;;422852;23;82343;-91
2022/01/06 01:02:38;;;;;;;;;;;4.10;99.90;4.70;99582.00;;;;424287;22;95366;-92
2022/01/06 01:02:50;;;;;;;;;;;4.10;99.90;4.70;99586.00;;;;422865;23;83264;-92
2022/01/06 01:03:04;;;;;;;;;;;4.20;99.90;4.70;99573.00;;;;421798;23;96552;-92
2022/01/06 01:03:30;;;;;;;;;;;4.10;99.90;4.70;99590.00;;;;422699;23;82465;-91
2022/01/06 01:03:43;;;;;;;;;;;4.20;99.90;4.70;99580.00;;;;422658;23;96762;-91
2022/01/06 01:03:56;;;;;;;;;;;4.20;99.90;4.70;99578.00;;;;426134;22;82455;-91
2022/01/06 01:04:08;;;;;;;;;;;4.20;99.90;4.70;99579.00;;;;424528;22;96416;-92
2022/01/06 01:04:20;;;;;;;;;;;4.20;99.90;4.70;99574.00;;;;430311;22;83260;-91
2022/01/06 01:04:33;;;;;;;;;;;4.20;99.90;4.60;99583.00;;;;425207;22;94143;-91
2022/01/06 01:04:45;;;;;;;;;;;4.20;99.90;4.70;99584.00;;;;427639;22;83516;-91
2022/01/06 01:04:56;;;;;;;;;;;4.10;99.90;4.70;99589.00;;;;424374;22;96807;-91
2022/01/06 01:05:08;;;;;;;;;;;4.20;99.90;4.70;99580.00;;;;425562;22;82331;-91
2022/01/06 01:05:21;;;;;;;;;;;4.10;99.90;4.70;99583.00;;;;420792;23;96254;-91
2022/01/06 01:05:33;;;;;;;;;;;4.10;99.90;4.70;99588.00;;;;423458;23;83209;-91
2022/01/06 01:05:46;;;;;;;;;;;4.20;99.90;4.70;99583.00;;;;422842;23;93862;-92
2022/01/06 01:05:57;;;;;;;;;;;4.10;99.90;4.70;99584.00;;;;423378;23;82492;-91
2022/01/06 01:06:09;;;;;;;;;;;4.20;99.90;4.70;99584.00;;;;423978;22;95570;-91
2022/01/06 01:06:21;;;;;;;;;;;4.20;99.90;4.70;99579.00;;;;423624;23;82378;-91
2022/01/06 01:06:33;;;;;;;;;;;4.10;99.90;4.70;99577.00;;;;422705;23;92734;-91
2022/01/06 01:06:45;;;;;;;;;;;4.20;99.90;4.70;99578.00;;;;425609;22;82371;-91
2022/01/06 01:06:57;;;;;;;;;;;4.20;99.90;4.70;99576.00;;;;426052;22;96646;-91
2022/01/06 01:07:08;;;;;;;;;;;4.20;99.90;4.70;99582.00;;;;427617;22;83112;-91
2022/01/06 01:07:20;;;;;;;;;;;4.20;99.90;4.80;99575.00;;;;422207;23;93291;-91
2022/01/06 01:07:32;;;;;;;;;;;4.20;99.90;4.70;99585.00;;;;423315;23;83151;-91
2022/01/06 01:07:44;;;;;;;;;;;4.20;99.90;4.70;99582.00;;;;423689;22;96029;-92
2022/01/06 01:07:55;;;;;;;;;;;4.20;99.90;4.70;99571.00;;;;424818;22;83277;-93
2022/01/06 01:08:08;;;;;;;;;;;4.20;99.90;4.70;99578.00;;;;422247;23;94799;-93
2022/01/06 01:08:20;;;;;;;;;;;4.10;99.90;4.70;99577.00;;;;423644;23;82521;-94
2022/01/06 01:08:34;;;;;;;;;;;4.20;99.90;4.70;99583.00;;;;424591;22;94275;-93
2022/01/06 01:08:46;;;;;;;;;;;4.20;99.90;4.70;99587.00;;;;426779;22;82579;-93
2022/01/06 01:08:57;;;;;;;;;;;4.20;99.90;4.70;99585.00;;;;423604;22;96574;-94
2022/01/06 01:09:09;;;;;;;;;;;4.20;99.90;4.70;99584.00;;;;422532;23;82470;-93
2022/01/06 01:09:21;;;;;;;;;;;4.20;99.90;4.70;99585.00;;;;422241;23;93639;-93
2022/01/06 01:09:33;;;;;;;;;;;4.20;99.90;4.70;99576.00;;;;423207;23;83167;-93
2022/01/06 01:09:45;;;;;;;;;;;4.20;99.90;4.70;99584.00;;;;423987;22;95105;-93
2022/01/06 01:09:57;;;;;;;;;;;4.20;99.90;4.70;99580.00;;;;422798;23;83382;-93
2022/01/06 01:10:09;;;;;;;;;;;4.20;99.90;4.70;99586.00;;;;424157;22;92366;-93
2022/01/06 01:10:20;;;;;;;;;;;4.20;99.90;4.70;99588.00;;;;423006;23;83240;-93
2022/01/06 01:10:32;;;;;;;;;;;4.20;99.90;4.80;99586.00;;;;421418;23;93521;-93
2022/01/06 01:10:44;;;;;;;;;;;4.20;99.90;4.70;99577.00;;;;423270;23;83252;-94